Time;durP1;ratioP1;P1;durP2;ratioP2;P2;SDS_P1;SDS_P2;PMS_P1;PMS_P2;Temp;Humidity;BMP_temperature;BMP_pressure;BME280_temperature;BME280_humidity;BME280_pressure;Samples;Min_cycle;Max_cycle;Signal;HPM_P1;HPM_P2
2023/10/23 00:01:08;;;;;;;8.10;4.80;;;;;;;;;;5133365;27;20059;-58
2023/10/23 00:03:35;;;;;;;7.22;5.03;;;;;;;;;;5131170;27;20513;-57
2023/10/23 00:06:02;;;;;;;6.72;5.07;;;;;;;;;;5125603;27;20113;-58
2023/10/23 00:08:28;;;;;;;7.40;4.57;;;;;;;;;;5123608;27;20081;-58
2023/10/23 00:10:55;;;;;;;9.77;4.85;;;;;;;;;;5122713;27;20581;-58
2023/10/23 00:13:21;;;;;;;6.90;5.10;;;;;;;;;;5139413;27;20055;-58
2023/10/23 00:15:48;;;;;;;6.50;4.40;;;;;;;;;;5143863;27;20051;-58
2023/10/23 00:18:14;;;;;;;7.13;4.53;;;;;;;;;;5139591;27;20179;-58
2023/10/23 00:20:40;;;;;;;6.82;4.50;;;;;;;;;;5122423;27;20532;-58
2023/10/23 00:23:07;;;;;;;6.32;4.55;;;;;;;;;;5140446;27;20509;-56
2023/10/23 00:25:34;;;;;;;6.45;4.43;;;;;;;;;;5142133;27;20078;-58
2023/10/23 00:28:01;;;;;;;10.38;4.63;;;;;;;;;;5145156;27;20054;-57
2023/10/23 00:30:31;;;;;;;6.93;4.85;;;;;;;;;;5147689;27;20039;-59
2023/10/23 00:32:58;;;;;;;7.35;5.07;;;;;;;;;;5144497;27;20058;-59
2023/10/23 00:35:24;;;;;;;7.57;4.78;;;;;;;;;;5131932;27;20048;-58
2023/10/23 00:37:51;;;;;;;10.57;5.25;;;;;;;;;;5125670;27;20150;-59
2023/10/23 00:40:17;;;;;;;6.43;5.28;;;;;;;;;;5129006;27;20606;-57
2023/10/23 00:42:44;;;;;;;7.35;4.95;;;;;;;;;;5146964;27;20047;-56
2023/10/23 00:45:10;;;;;;;7.60;5.10;;;;;;;;;;5128482;27;20079;-59
2023/10/23 00:47:37;;;;;;;6.05;5.43;;;;;;;;;;5125583;27;20059;-57
2023/10/23 00:50:04;;;;;;;6.40;4.82;;;;;;;;;;5126305;27;20135;-58
2023/10/23 00:52:30;;;;;;;5.45;4.53;;;;;;;;;;5126176;27;20060;-58
2023/10/23 00:54:57;;;;;;;8.95;6.05;;;;;;;;;;5126213;27;20081;-58
2023/10/23 00:57:23;;;;;;;8.85;5.63;;;;;;;;;;5126154;27;20135;-58
2023/10/23 00:59:49;;;;;;;8.70;6.70;;;;;;;;;;5124890;27;20142;-58
2023/10/23 01:02:16;;;;;;;8.73;6.35;;;;;;;;;;5125839;27;20055;-58
2023/10/23 01:04:43;;;;;;;10.45;6.88;;;;;;;;;;5144169;27;20637;-58
2023/10/23 01:07:10;;;;;;;9.02;6.18;;;;;;;;;;5130218;27;20176;-58
2023/10/23 01:09:36;;;;;;;17.15;6.47;;;;;;;;;;5138771;27;20051;-58
2023/10/23 01:12:03;;;;;;;7.97;6.45;;;;;;;;;;5143661;27;20051;-58
2023/10/23 01:14:29;;;;;;;10.10;6.85;;;;;;;;;;5126464;27;20400;-58
2023/10/23 01:16:55;;;;;;;10.75;7.05;;;;;;;;;;5142137;27;20134;-59
2023/10/23 01:19:22;;;;;;;12.02;6.70;;;;;;;;;;5135052;27;20432;-60
2023/10/23 01:21:48;;;;;;;9.82;6.75;;;;;;;;;;5117889;27;20529;-55
2023/10/23 01:24:16;;;;;;;16.60;6.90;;;;;;;;;;5141890;27;20055;-57
2023/10/23 01:26:42;;;;;;;10.15;6.82;;;;;;;;;;5143882;27;20051;-57
2023/10/23 01:29:09;;;;;;;9.88;7.22;;;;;;;;;;5145190;27;20059;-54
2023/10/23 01:31:35;;;;;;;8.38;6.68;;;;;;;;;;5131139;27;20055;-57
2023/10/23 01:34:02;;;;;;;8.23;7.10;;;;;;;;;;5146740;27;20131;-54
2023/10/23 01:36:29;;;;;;;8.38;7.03;;;;;;;;;;5125121;27;20091;-58
2023/10/23 01:38:55;;;;;;;8.35;6.85;;;;;;;;;;5124101;27;20052;-58
2023/10/23 01:41:21;;;;;;;9.90;7.13;;;;;;;;;;5133416;27;20100;-59
2023/10/23 01:43:48;;;;;;;12.82;7.90;;;;;;;;;;5142929;27;20549;-57
2023/10/23 01:46:15;;;;;;;9.27;7.90;;;;;;;;;;5126273;27;20146;-58
2023/10/23 01:48:41;;;;;;;11.90;7.72;;;;;;;;;;5141145;27;20138;-56
2023/10/23 01:51:08;;;;;;;12.45;8.40;;;;;;;;;;5138654;27;20142;-54
2023/10/23 01:53:34;;;;;;;9.90;8.18;;;;;;;;;;5141763;27;20178;-58
2023/10/23 01:56:05;;;;;;;10.65;7.93;;;;;;;;;;5125916;27;20071;-58
2023/10/23 01:58:31;;;;;;;8.60;7.30;;;;;;;;;;5135887;27;20078;-57
2023/10/23 02:00:58;;;;;;;7.88;7.07;;;;;;;;;;5129599;27;20050;-58
2023/10/23 02:03:24;;;;;;;11.70;8.65;;;;;;;;;;5131270;27;20622;-57
2023/10/23 02:05:51;;;;;;;13.48;8.50;;;;;;;;;;5144137;27;20075;-57
2023/10/23 02:08:23;;;;;;;11.95;7.95;;;;;;;;;;5133322;27;20062;-59
2023/10/23 02:10:50;;;;;;;9.27;7.68;;;;;;;;;;5125035;27;20138;-58
2023/10/23 02:13:17;;;;;;;11.38;8.75;;;;;;;;;;5134922;27;20111;-58
2023/10/23 02:15:44;;;;;;;13.00;8.38;;;;;;;;;;5141096;27;20097;-58
2023/10/23 02:18:10;;;;;;;10.65;8.73;;;;;;;;;;5125553;27;20138;-58
2023/10/23 02:20:37;;;;;;;14.70;9.13;;;;;;;;;;5123620;27;20055;-56
2023/10/23 02:23:03;;;;;;;12.45;9.18;;;;;;;;;;5106400;27;20566;-59
2023/10/23 02:25:30;;;;;;;12.50;9.35;;;;;;;;;;5124419;27;20539;-57
2023/10/23 02:27:56;;;;;;;12.38;8.73;;;;;;;;;;5136742;27;20469;-58
2023/10/23 02:30:23;;;;;;;14.65;9.40;;;;;;;;;;5124485;27;20120;-58
2023/10/23 02:32:49;;;;;;;11.07;9.25;;;;;;;;;;5137876;27;20222;-57
2023/10/23 02:35:16;;;;;;;11.88;8.85;;;;;;;;;;5136693;27;20047;-58
2023/10/23 02:37:42;;;;;;;12.73;9.55;;;;;;;;;;5124395;27;20592;-55
2023/10/23 02:40:09;;;;;;;13.88;9.85;;;;;;;;;;5124947;27;20543;-59
2023/10/23 02:42:35;;;;;;;12.98;9.68;;;;;;;;;;5105653;27;20053;-58
2023/10/23 02:45:02;;;;;;;12.35;9.90;;;;;;;;;;5124691;27;20117;-58
2023/10/23 02:47:28;;;;;;;13.70;10.15;;;;;;;;;;5127158;27;20043;-56
2023/10/23 02:49:55;;;;;;;12.00;9.55;;;;;;;;;;5141463;27;20055;-56
2023/10/23 02:52:21;;;;;;;13.40;10.15;;;;;;;;;;5130217;27;20051;-57
2023/10/23 02:54:49;;;;;;;13.25;9.80;;;;;;;;;;5136030;27;20051;-59
2023/10/23 02:57:15;;;;;;;11.75;10.20;;;;;;;;;;5127918;27;20585;-57
2023/10/23 02:59:46;;;;;;;14.02;10.52;;;;;;;;;;5128339;27;20086;-58
2023/10/23 03:02:14;;;;;;;13.52;9.90;;;;;;;;;;5134260;27;20056;-58
2023/10/23 03:04:41;;;;;;;12.63;9.57;;;;;;;;;;5132469;27;20504;-58
2023/10/23 03:07:08;;;;;;;14.70;10.48;;;;;;;;;;5145507;27;20047;-56
2023/10/23 03:09:34;;;;;;;17.55;11.15;;;;;;;;;;5143313;27;20051;-58
2023/10/23 03:12:01;;;;;;;13.75;10.35;;;;;;;;;;5124912;27;20056;-59
2023/10/23 03:14:28;;;;;;;14.73;11.20;;;;;;;;;;5123657;27;20533;-59
2023/10/23 03:16:54;;;;;;;18.05;11.68;;;;;;;;;;5122989;27;20054;-57
2023/10/23 03:19:24;;;;;;;14.50;11.02;;;;;;;;;;5104882;27;20052;-59
2023/10/23 03:21:51;;;;;;;13.02;10.57;;;;;;;;;;5123513;27;20157;-59
2023/10/23 03:24:18;;;;;;;15.38;10.13;;;;;;;;;;5128293;27;20058;-59
2023/10/23 03:26:45;;;;;;;12.40;10.05;;;;;;;;;;5112073;27;20047;-59
2023/10/23 03:29:11;;;;;;;13.23;10.30;;;;;;;;;;5129760;27;20051;-56
2023/10/23 03:31:38;;;;;;;13.00;10.35;;;;;;;;;;5143786;27;20051;-53
2023/10/23 03:34:04;;;;;;;13.05;9.88;;;;;;;;;;5123903;27;20146;-59
2023/10/23 03:36:31;;;;;;;12.55;10.32;;;;;;;;;;5123404;27;20528;-57
2023/10/23 03:38:57;;;;;;;16.02;10.57;;;;;;;;;;5123604;27;20207;-58
2023/10/23 03:41:25;;;;;;;12.48;9.35;;;;;;;;;;5140359;27;20478;-58
2023/10/23 03:43:52;;;;;;;10.73;9.13;;;;;;;;;;5148001;27;20135;-58
2023/10/23 03:46:18;;;;;;;10.43;8.43;;;;;;;;;;5145905;27;20501;-56
2023/10/23 03:48:45;;;;;;;11.73;9.48;;;;;;;;;;5135848;27;20055;-57
2023/10/23 03:51:11;;;;;;;11.50;9.63;;;;;;;;;;5129374;27;20966;-57
2023/10/23 03:53:38;;;;;;;12.07;9.00;;;;;;;;;;5142700;27;20027;-57
2023/10/23 03:56:06;;;;;;;10.60;8.82;;;;;;;;;;5136264;27;20672;-57
2023/10/23 03:58:32;;;;;;;10.82;9.05;;;;;;;;;;5130329;27;20054;-59
2023/10/23 04:00:59;;;;;;;13.82;8.90;;;;;;;;;;5122467;27;20581;-58
2023/10/23 04:03:25;;;;;;;12.75;9.15;;;;;;;;;;5125489;27;20052;-57
2023/10/23 04:05:52;;;;;;;11.63;8.93;;;;;;;;;;5131416;27;20059;-59
2023/10/23 04:08:19;;;;;;;16.25;8.65;;;;;;;;;;5132646;27;20433;-55
2023/10/23 04:10:49;;;;;;;10.60;8.52;;;;;;;;;;5132870;27;20547;-58
2023/10/23 04:13:15;;;;;;;11.65;9.35;;;;;;;;;;5132900;27;20056;-57
2023/10/23 04:15:55;;;;;;;12.15;8.77;;;;;;;;;;5126946;27;20434;-56
2023/10/23 04:18:22;;;;;;;9.75;8.70;;;;;;;;;;5144950;27;20051;-58
2023/10/23 04:20:48;;;;;;;10.30;8.65;;;;;;;;;;5146442;27;20056;-58
2023/10/23 04:23:15;;;;;;;10.60;8.38;;;;;;;;;;5147680;27;20047;-58
2023/10/23 04:25:41;;;;;;;12.38;8.77;;;;;;;;;;5139062;27;20139;-55
2023/10/23 04:28:08;;;;;;;11.77;8.90;;;;;;;;;;5140812;27;20051;-57
2023/10/23 04:30:34;;;;;;;10.38;8.95;;;;;;;;;;5131501;27;20146;-58
2023/10/23 04:33:00;;;;;;;11.27;8.95;;;;;;;;;;5126088;27;20198;-56
2023/10/23 04:35:27;;;;;;;11.23;8.90;;;;;;;;;;5128378;27;20141;-58
2023/10/23 04:37:53;;;;;;;12.05;8.73;;;;;;;;;;5147796;27;20505;-58
2023/10/23 04:40:19;;;;;;;12.55;9.43;;;;;;;;;;5116656;27;20158;-59
2023/10/23 04:42:46;;;;;;;14.18;9.18;;;;;;;;;;5134313;27;20055;-59
2023/10/23 04:45:12;;;;;;;16.77;9.07;;;;;;;;;;5141981;27;20051;-59
2023/10/23 04:47:39;;;;;;;16.63;10.48;;;;;;;;;;5143833;27;20139;-55
2023/10/23 04:50:06;;;;;;;13.43;9.40;;;;;;;;;;5146748;27;20095;-57
2023/10/23 04:52:34;;;;;;;13.43;9.80;;;;;;;;;;5146166;27;20537;-59
2023/10/23 04:55:01;;;;;;;15.77;9.27;;;;;;;;;;5144063;27;20055;-59
2023/10/23 04:57:28;;;;;;;12.50;9.55;;;;;;;;;;5139777;27;20055;-57
2023/10/23 04:59:55;;;;;;;10.75;9.20;;;;;;;;;;5125763;27;20057;-57
2023/10/23 05:02:21;;;;;;;15.18;10.45;;;;;;;;;;5126333;27;20064;-59
2023/10/23 05:04:47;;;;;;;15.18;10.73;;;;;;;;;;5125534;27;20574;-58
2023/10/23 05:07:14;;;;;;;20.33;12.15;;;;;;;;;;5126016;27;20105;-58
2023/10/23 05:09:41;;;;;;;40.30;15.10;;;;;;;;;;5130820;27;20138;-59
2023/10/23 05:12:08;;;;;;;22.85;14.32;;;;;;;;;;5141423;27;20059;-56
2023/10/23 05:14:34;;;;;;;22.42;14.43;;;;;;;;;;5135782;27;20083;-59
2023/10/23 05:17:00;;;;;;;30.58;14.05;;;;;;;;;;5125135;27;20172;-56
2023/10/23 05:19:27;;;;;;;30.95;14.43;;;;;;;;;;5125745;27;20424;-59
2023/10/23 05:21:53;;;;;;;31.70;15.32;;;;;;;;;;5125462;27;20047;-59
2023/10/23 05:24:20;;;;;;;62.00;15.40;;;;;;;;;;5126279;27;20167;-58
2023/10/23 05:26:46;;;;;;;28.92;14.50;;;;;;;;;;5133984;27;20142;-59
2023/10/23 05:29:13;;;;;;;42.90;15.18;;;;;;;;;;5148125;27;20530;-56
2023/10/23 05:31:39;;;;;;;28.92;15.73;;;;;;;;;;5136228;27;20081;-57
2023/10/23 05:34:06;;;;;;;46.40;15.40;;;;;;;;;;5132052;27;20051;-59
2023/10/23 05:36:33;;;;;;;40.28;15.23;;;;;;;;;;5126903;27;20055;-58
2023/10/23 05:38:59;;;;;;;79.28;17.52;;;;;;;;;;5127934;27;20054;-58
2023/10/23 05:41:26;;;;;;;78.75;17.30;;;;;;;;;;5127465;27;20098;-56
2023/10/23 05:43:52;;;;;;;59.65;16.95;;;;;;;;;;5127095;27;20505;-59
2023/10/23 05:46:20;;;;;;;58.50;18.35;;;;;;;;;;5130578;27;20048;-56
2023/10/23 05:48:48;;;;;;;36.90;16.42;;;;;;;;;;5136882;27;20474;-59
2023/10/23 05:51:15;;;;;;;72.03;17.05;;;;;;;;;;5136874;27;20061;-56
2023/10/23 05:53:41;;;;;;;41.65;17.10;;;;;;;;;;5128317;27;20040;-59
2023/10/23 05:56:08;;;;;;;79.40;19.20;;;;;;;;;;5126749;27;20121;-58
2023/10/23 05:58:35;;;;;;;49.20;17.15;;;;;;;;;;5125359;27;20059;-60
2023/10/23 06:01:08;;;;;;;50.40;17.33;;;;;;;;;;5132186;27;20502;-58
2023/10/23 06:03:35;;;;;;;54.47;17.45;;;;;;;;;;5137639;27;20105;-58
2023/10/23 06:06:02;;;;;;;34.38;17.20;;;;;;;;;;5141800;27;20052;-58
2023/10/23 06:08:29;;;;;;;50.97;17.95;;;;;;;;;;5145373;27;20405;-59
2023/10/23 06:10:55;;;;;;;63.40;17.00;;;;;;;;;;5132668;27;20055;-57
2023/10/23 06:13:22;;;;;;;127.05;20.77;;;;;;;;;;5138995;27;20054;-59
2023/10/23 06:15:49;;;;;;;102.03;19.20;;;;;;;;;;5125911;27;20067;-59
2023/10/23 06:18:15;;;;;;;51.97;19.08;;;;;;;;;;5139179;27;20146;-58
2023/10/23 06:20:41;;;;;;;89.93;19.60;;;;;;;;;;5145542;27;20116;-59
2023/10/23 06:23:08;;;;;;;33.20;16.08;;;;;;;;;;5141861;27;20118;-57
2023/10/23 06:25:34;;;;;;;41.78;16.98;;;;;;;;;;5123954;27;20618;-57
2023/10/23 06:28:02;;;;;;;66.28;18.25;;;;;;;;;;5124852;27;20044;-60
2023/10/23 06:30:29;;;;;;;50.42;16.52;;;;;;;;;;5140813;27;20053;-57
2023/10/23 06:32:57;;;;;;;71.15;17.70;;;;;;;;;;5142826;27;20104;-58
2023/10/23 06:35:24;;;;;;;37.33;17.30;;;;;;;;;;5145764;27;20055;-58
2023/10/23 06:37:50;;;;;;;86.97;19.52;;;;;;;;;;5129215;27;20059;-58
2023/10/23 06:40:17;;;;;;;77.85;18.88;;;;;;;;;;5129898;27;20086;-58
2023/10/23 06:42:43;;;;;;;82.75;18.95;;;;;;;;;;5124033;27;20457;-59
2023/10/23 06:45:10;;;;;;;36.10;17.45;;;;;;;;;;5125460;27;20048;-56
2023/10/23 06:47:37;;;;;;;63.42;17.98;;;;;;;;;;5125241;27;20564;-58
2023/10/23 06:50:05;;;;;;;66.00;17.88;;;;;;;;;;5143007;27;20063;-59
2023/10/23 06:52:32;;;;;;;45.92;18.08;;;;;;;;;;5139925;27;20436;-56
2023/10/23 06:54:59;;;;;;;119.28;22.30;;;;;;;;;;5133867;27;20084;-54
2023/10/23 06:57:25;;;;;;;58.80;18.25;;;;;;;;;;5144786;27;20082;-59
2023/10/23 06:59:54;;;;;;;140.18;21.20;;;;;;;;;;5132979;27;20136;-58
2023/10/23 07:02:20;;;;;;;54.22;19.20;;;;;;;;;;5124549;27;20992;-56
2023/10/23 07:04:47;;;;;;;115.45;20.67;;;;;;;;;;5125029;27;20032;-59
2023/10/23 07:07:14;;;;;;;65.70;17.80;;;;;;;;;;5140417;27;20054;-58
2023/10/23 07:09:58;;;;;;;194.10;24.02;;;;;;;;;;5133835;27;20051;-58
2023/10/23 07:12:25;;;;;;;56.35;19.38;;;;;;;;;;5125427;27;20066;-57
2023/10/23 07:14:52;;;;;;;72.53;20.27;;;;;;;;;;5125894;27;20649;-57
2023/10/23 07:17:19;;;;;;;67.25;20.02;;;;;;;;;;5125718;27;20066;-57
2023/10/23 07:19:45;;;;;;;56.85;19.83;;;;;;;;;;5139461;27;20176;-56
2023/10/23 07:22:12;;;;;;;64.20;19.73;;;;;;;;;;5144986;27;20457;-58
2023/10/23 07:24:38;;;;;;;46.47;19.73;;;;;;;;;;5144864;27;20381;-58
2023/10/23 07:27:05;;;;;;;70.82;20.88;;;;;;;;;;5133020;27;20087;-56
2023/10/23 07:29:31;;;;;;;56.67;20.77;;;;;;;;;;5136261;27;20143;-58
2023/10/23 07:31:58;;;;;;;47.28;18.58;;;;;;;;;;5145426;27;20523;-58
2023/10/23 07:34:24;;;;;;;56.75;19.58;;;;;;;;;;5144988;27;20475;-58
2023/10/23 07:36:51;;;;;;;44.53;19.38;;;;;;;;;;5132385;27;20051;-57
2023/10/23 07:39:18;;;;;;;53.15;19.80;;;;;;;;;;5139873;27;20701;-56
2023/10/23 07:41:44;;;;;;;93.85;22.38;;;;;;;;;;5124583;27;20079;-59
2023/10/23 07:44:10;;;;;;;50.78;19.98;;;;;;;;;;5123567;27;20077;-57
2023/10/23 07:46:37;;;;;;;48.85;20.95;;;;;;;;;;5124539;27;20052;-58
2023/10/23 07:49:04;;;;;;;69.85;21.42;;;;;;;;;;5124285;27;20047;-58
2023/10/23 07:51:30;;;;;;;65.50;20.02;;;;;;;;;;5123683;27;20048;-57
2023/10/23 07:53:57;;;;;;;76.40;19.38;;;;;;;;;;5123310;27;20528;-57
2023/10/23 07:56:23;;;;;;;36.58;18.48;;;;;;;;;;5123996;27;20047;-55
2023/10/23 07:58:51;;;;;;;51.72;19.52;;;;;;;;;;5124715;27;20051;-58
2023/10/23 08:01:17;;;;;;;35.85;18.75;;;;;;;;;;5124078;27;20052;-56
2023/10/23 08:03:44;;;;;;;39.45;18.00;;;;;;;;;;5124451;27;20067;-59
2023/10/23 08:06:11;;;;;;;46.03;18.05;;;;;;;;;;5122396;27;20134;-58
2023/10/23 08:08:38;;;;;;;58.83;18.17;;;;;;;;;;5122759;27;20051;-60
2023/10/23 08:11:06;;;;;;;74.97;18.40;;;;;;;;;;5141098;27;20051;-58
2023/10/23 08:13:33;;;;;;;65.13;19.58;;;;;;;;;;5139656;27;20652;-57
2023/10/23 08:16:00;;;;;;;71.15;18.27;;;;;;;;;;5141111;27;20105;-56
2023/10/23 08:18:27;;;;;;;49.53;18.63;;;;;;;;;;5129607;27;20060;-57
2023/10/23 08:21:14;;;;;;;36.10;16.30;;;;;;;;;;5144048;27;20062;-59
2023/10/23 08:23:42;;;;;;;36.75;17.60;;;;;;;;;;5143949;27;20895;-59
2023/10/23 08:26:08;;;;;;;35.22;16.83;;;;;;;;;;5122436;27;20048;-56
2023/10/23 08:28:35;;;;;;;45.15;17.42;;;;;;;;;;5123569;27;20052;-57
2023/10/23 08:31:21;;;;;;;48.65;18.58;;;;;;;;;;5135308;27;20054;-58
2023/10/23 08:34:04;;;;;;;60.08;18.55;;;;;;;;;;5123006;27;20089;-59
2023/10/23 08:36:32;;;;;;;37.90;17.70;;;;;;;;;;5129318;27;20058;-58
2023/10/23 08:38:59;;;;;;;68.57;18.48;;;;;;;;;;5117788;27;20514;-59
2023/10/23 08:41:26;;;;;;;48.00;18.27;;;;;;;;;;5137896;27;20055;-58
2023/10/23 08:43:52;;;;;;;34.53;17.05;;;;;;;;;;5142503;27;20564;-59
2023/10/23 08:46:19;;;;;;;34.78;18.38;;;;;;;;;;5129811;27;20048;-53
2023/10/23 08:48:46;;;;;;;40.67;17.88;;;;;;;;;;5145059;27;20051;-56
2023/10/23 08:51:14;;;;;;;45.25;18.02;;;;;;;;;;5125786;27;20485;-58
2023/10/23 08:53:48;;;;;;;38.13;18.83;;;;;;;;;;5141881;27;20061;-58
2023/10/23 08:56:37;;;;;;;33.95;17.98;;;;;;;;;;5147015;27;20054;-56
2023/10/23 08:59:04;;;;;;;34.80;17.67;;;;;;;;;;5146705;27;20108;-58
2023/10/23 09:01:32;;;;;;;36.33;20.02;;;;;;;;;;5146525;27;20097;-57
2023/10/23 09:04:03;;;;;;;34.25;17.60;;;;;;;;;;5148457;27;20312;-57
2023/10/23 09:06:32;;;;;;;36.65;18.98;;;;;;;;;;5148800;27;20056;-58
2023/10/23 09:08:59;;;;;;;40.10;18.00;;;;;;;;;;5129702;27;20510;-57
2023/10/23 09:11:38;;;;;;;38.17;18.30;;;;;;;;;;5130342;27;20150;-59
2023/10/23 09:14:04;;;;;;;39.35;19.10;;;;;;;;;;5147768;27;20062;-59
2023/10/23 09:16:31;;;;;;;41.53;18.73;;;;;;;;;;5147535;27;20154;-56
2023/10/23 09:18:57;;;;;;;38.83;19.85;;;;;;;;;;5146539;27;20051;-59
2023/10/23 09:21:24;;;;;;;36.33;19.00;;;;;;;;;;5145674;27;20223;-59
2023/10/23 09:23:55;;;;;;;39.15;20.20;;;;;;;;;;5145678;27;20047;-57
2023/10/23 09:26:22;;;;;;;37.78;19.35;;;;;;;;;;5146448;27;20491;-59
2023/10/23 09:28:50;;;;;;;36.10;19.48;;;;;;;;;;5146777;27;20055;-57
2023/10/23 09:31:16;;;;;;;34.70;17.20;;;;;;;;;;5146783;27;20055;-59
2023/10/23 09:33:44;;;;;;;36.78;18.40;;;;;;;;;;5146311;27;21820;-58
2023/10/23 09:36:11;;;;;;;38.28;18.70;;;;;;;;;;5146627;27;20057;-58
2023/10/23 09:38:41;;;;;;;38.40;17.70;;;;;;;;;;5146071;27;20589;-58
2023/10/23 09:41:10;;;;;;;32.83;18.48;;;;;;;;;;5146853;27;20494;-55
2023/10/23 09:43:45;;;;;;;32.55;16.73;;;;;;;;;;5146064;27;20043;-58
2023/10/23 09:46:12;;;;;;;28.90;17.05;;;;;;;;;;5146422;27;20130;-57
2023/10/23 09:48:43;;;;;;;32.97;16.92;;;;;;;;;;5145716;27;20066;-57
2023/10/23 09:51:16;;;;;;;34.63;18.33;;;;;;;;;;5131097;27;20480;-58
2023/10/23 09:53:47;;;;;;;27.13;16.35;;;;;;;;;;5127187;27;20058;-57
2023/10/23 09:56:15;;;;;;;29.63;16.13;;;;;;;;;;5126465;27;20510;-58
2023/10/23 09:58:44;;;;;;;31.73;16.55;;;;;;;;;;5144568;27;20100;-58
2023/10/23 10:01:11;;;;;;;34.95;17.13;;;;;;;;;;5145550;27;20116;-57
2023/10/23 10:03:38;;;;;;;32.53;17.90;;;;;;;;;;5145599;27;20138;-55
2023/10/23 10:06:09;;;;;;;33.20;16.88;;;;;;;;;;5146281;27;20146;-57
2023/10/23 10:08:37;;;;;;;29.83;17.00;;;;;;;;;;5134327;27;20051;-57
2023/10/23 10:11:05;;;;;;;27.77;16.38;;;;;;;;;;5144592;27;20051;-56
2023/10/23 10:13:32;;;;;;;27.98;16.75;;;;;;;;;;5136210;27;20105;-58
2023/10/23 10:15:59;;;;;;;28.27;16.77;;;;;;;;;;5125721;27;20441;-58
2023/10/23 10:18:25;;;;;;;28.85;15.65;;;;;;;;;;5126644;27;20054;-57
2023/10/23 10:20:55;;;;;;;27.13;17.17;;;;;;;;;;5137744;27;20553;-58
2023/10/23 10:23:22;;;;;;;30.85;16.17;;;;;;;;;;5125476;27;20051;-58
2023/10/23 10:25:49;;;;;;;24.73;15.82;;;;;;;;;;5125463;27;20145;-57
2023/10/23 10:28:15;;;;;;;22.70;14.98;;;;;;;;;;5125587;27;20051;-58
2023/10/23 10:30:41;;;;;;;29.08;15.90;;;;;;;;;;5125145;27;20559;-58
2023/10/23 10:33:29;;;;;;;21.20;14.13;;;;;;;;;;5124426;27;20099;-59
2023/10/23 10:36:17;;;;;;;21.90;14.57;;;;;;;;;;5138098;27;20059;-58
2023/10/23 10:39:05;;;;;;;21.42;13.57;;;;;;;;;;5146179;27;20062;-58
2023/10/23 10:41:33;;;;;;;21.25;13.75;;;;;;;;;;5145039;27;20082;-58
2023/10/23 10:44:00;;;;;;;22.08;13.48;;;;;;;;;;5145545;27;20117;-56
2023/10/23 10:46:28;;;;;;;21.08;13.48;;;;;;;;;;5143393;27;20051;-57
2023/10/23 10:48:56;;;;;;;19.52;12.70;;;;;;;;;;5143322;27;20071;-58
2023/10/23 10:51:23;;;;;;;17.50;13.35;;;;;;;;;;5143419;27;20058;-58
2023/10/23 10:54:30;;;;;;;19.48;12.95;;;;;;;;;;5143971;27;20161;-56
2023/10/23 10:56:51;;;;;;;19.95;12.13;;;;;;;;;;5126223;27;20055;-59
2023/10/23 10:59:25;;;;;;;19.65;13.30;;;;;;;;;;5145056;27;20051;-57
2023/10/23 11:01:51;;;;;;;20.33;12.43;;;;;;;;;;5144996;27;20112;-59
2023/10/23 11:04:19;;;;;;;18.40;12.30;;;;;;;;;;5145362;27;20055;-58
2023/10/23 11:06:45;;;;;;;18.13;11.95;;;;;;;;;;5145156;27;20043;-59
2023/10/23 11:09:12;;;;;;;15.05;10.60;;;;;;;;;;5131930;27;20298;-56
2023/10/23 11:11:39;;;;;;;18.33;10.95;;;;;;;;;;5132708;27;20149;-58
2023/10/23 11:14:06;;;;;;;19.13;11.57;;;;;;;;;;5137102;27;20506;-59
2023/10/23 11:16:33;;;;;;;16.42;11.82;;;;;;;;;;5125623;27;20047;-58
2023/10/23 11:19:00;;;;;;;16.80;12.43;;;;;;;;;;5124204;27;20919;-56
2023/10/23 11:21:27;;;;;;;21.10;13.13;;;;;;;;;;5144793;27;20058;-58
2023/10/23 11:23:54;;;;;;;17.65;11.32;;;;;;;;;;5125419;27;20055;-57
2023/10/23 11:26:22;;;;;;;15.95;11.95;;;;;;;;;;5137917;27;20116;-58
2023/10/23 11:28:48;;;;;;;17.48;11.30;;;;;;;;;;5144879;27;20131;-54
2023/10/23 11:31:15;;;;;;;14.27;10.85;;;;;;;;;;5146124;27;20055;-58
2023/10/23 11:33:41;;;;;;;15.52;11.32;;;;;;;;;;5128008;27;20082;-58
2023/10/23 11:36:09;;;;;;;14.27;11.15;;;;;;;;;;5124091;27;20066;-59
2023/10/23 11:38:36;;;;;;;14.07;10.05;;;;;;;;;;5124196;27;20149;-57
2023/10/23 11:41:03;;;;;;;16.98;10.52;;;;;;;;;;5126540;27;20067;-57
2023/10/23 11:43:30;;;;;;;16.27;10.52;;;;;;;;;;5123266;27;20054;-57
2023/10/23 11:45:58;;;;;;;16.77;9.15;;;;;;;;;;5139586;27;20559;-57
2023/10/23 11:48:25;;;;;;;16.42;9.30;;;;;;;;;;5134386;27;20105;-59
2023/10/23 11:50:52;;;;;;;19.48;10.43;;;;;;;;;;5123307;27;20051;-60
2023/10/23 11:53:19;;;;;;;16.80;11.13;;;;;;;;;;5130288;27;20117;-59
2023/10/23 11:55:47;;;;;;;16.10;10.77;;;;;;;;;;5132236;27;20086;-60
2023/10/23 11:58:13;;;;;;;18.73;9.98;;;;;;;;;;5143389;27;20060;-58
2023/10/23 12:00:40;;;;;;;14.85;10.70;;;;;;;;;;5129191;27;20055;-59
2023/10/23 12:03:06;;;;;;;16.95;10.07;;;;;;;;;;5141025;27;20047;-57
2023/10/23 12:05:33;;;;;;;14.50;10.38;;;;;;;;;;5138272;27;20559;-56
2023/10/23 12:07:59;;;;;;;21.33;11.70;;;;;;;;;;5142046;27;20087;-59
2023/10/23 12:10:28;;;;;;;20.17;12.27;;;;;;;;;;5122656;27;20509;-56
2023/10/23 12:12:55;;;;;;;19.02;12.10;;;;;;;;;;5123579;27;20093;-59
2023/10/23 12:15:23;;;;;;;27.30;12.73;;;;;;;;;;5135978;27;20065;-57
2023/10/23 12:17:50;;;;;;;21.40;13.02;;;;;;;;;;5142279;27;20058;-58
2023/10/23 12:20:21;;;;;;;21.30;12.77;;;;;;;;;;5138087;27;20062;-57
2023/10/23 12:22:49;;;;;;;20.55;11.98;;;;;;;;;;5143758;27;20061;-58
2023/10/23 12:25:18;;;;;;;17.77;12.75;;;;;;;;;;5146108;27;20077;-57
2023/10/23 12:27:44;;;;;;;27.33;13.55;;;;;;;;;;5150301;27;20051;-59
2023/10/23 12:30:12;;;;;;;20.63;12.27;;;;;;;;;;5154763;27;20074;-57
2023/10/23 12:32:49;;;;;;;23.27;12.95;;;;;;;;;;5142383;27;20054;-56
2023/10/23 12:35:35;;;;;;;23.95;12.80;;;;;;;;;;5126531;27;20051;-58
2023/10/23 12:38:02;;;;;;;21.70;13.25;;;;;;;;;;5143157;27;20086;-57
2023/10/23 12:40:28;;;;;;;21.80;13.57;;;;;;;;;;5143662;27;20051;-57
2023/10/23 12:43:00;;;;;;;29.17;13.50;;;;;;;;;;5145091;27;20051;-56
2023/10/23 12:45:26;;;;;;;21.98;12.80;;;;;;;;;;5128177;27;20051;-58
2023/10/23 12:47:53;;;;;;;23.27;13.85;;;;;;;;;;5124915;27;20057;-57
2023/10/23 12:50:19;;;;;;;23.55;13.95;;;;;;;;;;5142761;27;20222;-57
2023/10/23 12:52:46;;;;;;;19.15;12.65;;;;;;;;;;5139906;27;20112;-58
2023/10/23 12:55:14;;;;;;;25.67;14.43;;;;;;;;;;5142858;27;20051;-57
2023/10/23 12:57:41;;;;;;;20.15;12.70;;;;;;;;;;5125415;27;20193;-56
2023/10/23 13:00:08;;;;;;;26.98;12.52;;;;;;;;;;5128775;27;20062;-57
2023/10/23 13:02:35;;;;;;;22.77;12.27;;;;;;;;;;5144914;27;20493;-58
2023/10/23 13:05:02;;;;;;;20.25;12.85;;;;;;;;;;5135127;27;20522;-55
2023/10/23 13:07:29;;;;;;;23.05;12.88;;;;;;;;;;5138212;27;20051;-57
2023/10/23 13:09:55;;;;;;;16.92;12.13;;;;;;;;;;5144432;27;20051;-57
2023/10/23 13:12:22;;;;;;;23.65;12.48;;;;;;;;;;5132227;27;20522;-58
2023/10/23 13:14:49;;;;;;;19.05;12.13;;;;;;;;;;5141231;27;20113;-58
2023/10/23 13:17:15;;;;;;;21.35;12.57;;;;;;;;;;5145692;27;20055;-57
2023/10/23 13:19:42;;;;;;;19.00;11.27;;;;;;;;;;5143327;27;20058;-54
2023/10/23 13:22:09;;;;;;;17.90;11.85;;;;;;;;;;5135467;27;20607;-58
2023/10/23 13:24:37;;;;;;;20.48;12.60;;;;;;;;;;5138327;27;20634;-58
2023/10/23 13:27:03;;;;;;;23.13;13.65;;;;;;;;;;5131037;27;20091;-59
2023/10/23 13:29:32;;;;;;;32.20;14.93;;;;;;;;;;5133981;27;20050;-58
2023/10/23 13:31:59;;;;;;;26.98;15.40;;;;;;;;;;5127986;27;20532;-59
2023/10/23 13:34:25;;;;;;;26.33;16.65;;;;;;;;;;5134845;27;20334;-57
2023/10/23 13:36:52;;;;;;;25.88;16.23;;;;;;;;;;5145347;27;20047;-58
2023/10/23 13:39:19;;;;;;;26.00;16.25;;;;;;;;;;5146406;27;20054;-57
2023/10/23 13:41:45;;;;;;;27.30;17.10;;;;;;;;;;5133308;27;20660;-57
2023/10/23 13:44:12;;;;;;;24.05;16.77;;;;;;;;;;5145679;27;20509;-57
2023/10/23 13:46:38;;;;;;;25.55;18.40;;;;;;;;;;5137985;27;20048;-58
2023/10/23 13:49:04;;;;;;;29.10;18.08;;;;;;;;;;5138646;27;20139;-58
2023/10/23 13:51:32;;;;;;;33.20;18.90;;;;;;;;;;5141754;27;20051;-59
2023/10/23 13:53:58;;;;;;;24.75;18.08;;;;;;;;;;5129398;27;20047;-59
2023/10/23 13:56:24;;;;;;;32.20;18.85;;;;;;;;;;5125008;27;20132;-59
2023/10/23 13:58:51;;;;;;;25.17;17.83;;;;;;;;;;5141427;27;20335;-58
2023/10/23 14:01:18;;;;;;;26.25;19.17;;;;;;;;;;5140287;27;20094;-59
2023/10/23 14:03:45;;;;;;;30.08;18.60;;;;;;;;;;5145280;27;20059;-58
2023/10/23 14:06:11;;;;;;;25.52;17.27;;;;;;;;;;5140766;27;20163;-58
2023/10/23 14:08:39;;;;;;;30.10;19.98;;;;;;;;;;5139785;27;20048;-59
2023/10/23 14:11:25;;;;;;;26.73;19.33;;;;;;;;;;5123910;27;20051;-58
2023/10/23 14:14:12;;;;;;;28.02;19.50;;;;;;;;;;5124680;27;20457;-58
2023/10/23 14:16:38;;;;;;;28.95;18.95;;;;;;;;;;5142991;27;20108;-59
2023/10/23 14:19:05;;;;;;;28.67;19.85;;;;;;;;;;5132029;27;20080;-57
2023/10/23 14:21:31;;;;;;;29.95;18.90;;;;;;;;;;5124114;27;20100;-59
2023/10/23 14:23:58;;;;;;;28.73;18.95;;;;;;;;;;5138333;27;20123;-57